sensor_id;sensor_type;location;lat;lon;timestamp;P1;durP1;ratioP1;P2;durP2;ratioP2
286;SDS011;127;48.770;9.212;2023-02-23T00:02:19;41.17;;;20.00;;
286;SDS011;127;48.770;9.212;2023-02-23T00:04:47;36.70;;;18.73;;
286;SDS011;127;48.770;9.212;2023-02-23T00:07:16;39.90;;;20.53;;
286;SDS011;127;48.770;9.212;2023-02-23T00:09:46;45.33;;;20.20;;
286;SDS011;127;48.770;9.212;2023-02-23T00:12:15;51.07;;;22.93;;
286;SDS011;127;48.770;9.212;2023-02-23T00:14:44;47.00;;;20.23;;
286;SDS011;127;48.770;9.212;2023-02-23T00:17:15;33.07;;;17.80;;
286;SDS011;127;48.770;9.212;2023-02-23T00:19:46;40.87;;;21.63;;
286;SDS011;127;48.770;9.212;2023-02-23T00:22:14;44.33;;;22.27;;
286;SDS011;127;48.770;9.212;2023-02-23T00:24:43;43.70;;;21.40;;
286;SDS011;127;48.770;9.212;2023-02-23T00:27:14;43.20;;;20.30;;
286;SDS011;127;48.770;9.212;2023-02-23T00:29:44;49.53;;;21.37;;
286;SDS011;127;48.770;9.212;2023-02-23T00:32:16;48.77;;;22.30;;
286;SDS011;127;48.770;9.212;2023-02-23T00:34:46;53.90;;;21.70;;
286;SDS011;127;48.770;9.212;2023-02-23T00:37:15;39.23;;;22.30;;
286;SDS011;127;48.770;9.212;2023-02-23T00:39:44;45.23;;;23.00;;
286;SDS011;127;48.770;9.212;2023-02-23T00:42:13;52.00;;;23.80;;
286;SDS011;127;48.770;9.212;2023-02-23T00:44:41;46.60;;;21.47;;
286;SDS011;127;48.770;9.212;2023-02-23T00:47:11;48.50;;;24.77;;
286;SDS011;127;48.770;9.212;2023-02-23T00:49:42;44.93;;;21.53;;
286;SDS011;127;48.770;9.212;2023-02-23T00:52:11;45.60;;;23.53;;
286;SDS011;127;48.770;9.212;2023-02-23T00:54:41;58.33;;;24.87;;
286;SDS011;127;48.770;9.212;2023-02-23T00:57:09;52.80;;;24.73;;
286;SDS011;127;48.770;9.212;2023-02-23T00:59:38;56.53;;;25.80;;
286;SDS011;127;48.770;9.212;2023-02-23T01:02:07;54.47;;;26.63;;
286;SDS011;127;48.770;9.212;2023-02-23T01:04:35;62.03;;;26.00;;
286;SDS011;127;48.770;9.212;2023-02-23T01:07:07;57.33;;;27.70;;
286;SDS011;127;48.770;9.212;2023-02-23T01:09:37;60.77;;;25.87;;
286;SDS011;127;48.770;9.212;2023-02-23T01:12:06;55.60;;;27.13;;
286;SDS011;127;48.770;9.212;2023-02-23T01:14:35;61.23;;;28.67;;
286;SDS011;127;48.770;9.212;2023-02-23T01:17:04;70.47;;;29.77;;
286;SDS011;127;48.770;9.212;2023-02-23T01:19:33;64.43;;;29.03;;
286;SDS011;127;48.770;9.212;2023-02-23T01:22:02;64.40;;;29.37;;
286;SDS011;127;48.770;9.212;2023-02-23T01:24:33;65.90;;;30.30;;
286;SDS011;127;48.770;9.212;2023-02-23T01:27:02;69.90;;;31.80;;
286;SDS011;127;48.770;9.212;2023-02-23T01:29:31;67.20;;;30.77;;
286;SDS011;127;48.770;9.212;2023-02-23T01:32:00;60.30;;;29.10;;
286;SDS011;127;48.770;9.212;2023-02-23T01:34:29;66.23;;;30.50;;
286;SDS011;127;48.770;9.212;2023-02-23T01:36:57;66.20;;;31.07;;
286;SDS011;127;48.770;9.212;2023-02-23T01:39:27;71.70;;;29.40;;
286;SDS011;127;48.770;9.212;2023-02-23T01:41:58;61.40;;;28.50;;
286;SDS011;127;48.770;9.212;2023-02-23T01:47:28;73.23;;;30.53;;
286;SDS011;127;48.770;9.212;2023-02-23T01:49:56;65.77;;;31.20;;
286;SDS011;127;48.770;9.212;2023-02-23T01:52:26;69.63;;;29.23;;
286;SDS011;127;48.770;9.212;2023-02-23T01:54:54;66.83;;;30.20;;
286;SDS011;127;48.770;9.212;2023-02-23T01:57:26;67.53;;;32.30;;
286;SDS011;127;48.770;9.212;2023-02-23T01:59:54;77.13;;;34.50;;
286;SDS011;127;48.770;9.212;2023-02-23T02:02:24;51.43;;;21.20;;
286;SDS011;127;48.770;9.212;2023-02-23T02:04:57;75.13;;;32.17;;
286;SDS011;127;48.770;9.212;2023-02-23T02:07:28;84.20;;;30.70;;
286;SDS011;127;48.770;9.212;2023-02-23T02:09:59;68.63;;;30.60;;
286;SDS011;127;48.770;9.212;2023-02-23T02:12:43;68.17;;;30.07;;
286;SDS011;127;48.770;9.212;2023-02-23T02:15:16;83.07;;;31.87;;
286;SDS011;127;48.770;9.212;2023-02-23T02:17:47;63.80;;;27.53;;
286;SDS011;127;48.770;9.212;2023-02-23T02:20:30;60.30;;;26.07;;
286;SDS011;127;48.770;9.212;2023-02-23T02:26:28;67.37;;;27.43;;
286;SDS011;127;48.770;9.212;2023-02-23T02:32:23;37.07;;;15.10;;
286;SDS011;127;48.770;9.212;2023-02-23T02:35:25;28.93;;;13.63;;
286;SDS011;127;48.770;9.212;2023-02-23T02:38:17;24.83;;;12.13;;
286;SDS011;127;48.770;9.212;2023-02-23T02:41:00;41.63;;;17.90;;
286;SDS011;127;48.770;9.212;2023-02-23T02:43:34;37.83;;;18.57;;
286;SDS011;127;48.770;9.212;2023-02-23T02:46:12;36.33;;;16.70;;
286;SDS011;127;48.770;9.212;2023-02-23T02:48:45;41.97;;;20.47;;
286;SDS011;127;48.770;9.212;2023-02-23T02:51:24;40.30;;;17.80;;
286;SDS011;127;48.770;9.212;2023-02-23T02:54:00;53.63;;;18.13;;
286;SDS011;127;48.770;9.212;2023-02-23T02:56:31;39.67;;;16.43;;
286;SDS011;127;48.770;9.212;2023-02-23T02:59:04;39.13;;;17.17;;
286;SDS011;127;48.770;9.212;2023-02-23T03:01:48;39.40;;;16.83;;
286;SDS011;127;48.770;9.212;2023-02-23T03:04:29;28.33;;;12.90;;
286;SDS011;127;48.770;9.212;2023-02-23T03:07:13;32.17;;;14.10;;
286;SDS011;127;48.770;9.212;2023-02-23T03:10:05;24.10;;;11.93;;
286;SDS011;127;48.770;9.212;2023-02-23T03:12:54;16.10;;;9.63;;
286;SDS011;127;48.770;9.212;2023-02-23T03:15:42;16.60;;;8.97;;
286;SDS011;127;48.770;9.212;2023-02-23T03:18:41;18.17;;;8.73;;
286;SDS011;127;48.770;9.212;2023-02-23T03:21:32;15.93;;;7.90;;
286;SDS011;127;48.770;9.212;2023-02-23T03:24:21;14.90;;;6.70;;
286;SDS011;127;48.770;9.212;2023-02-23T03:27:13;15.77;;;8.23;;
286;SDS011;127;48.770;9.212;2023-02-23T03:29:59;21.23;;;9.30;;
286;SDS011;127;48.770;9.212;2023-02-23T03:32:46;14.40;;;8.37;;
286;SDS011;127;48.770;9.212;2023-02-23T03:35:32;19.80;;;9.30;;
286;SDS011;127;48.770;9.212;2023-02-23T03:38:21;23.90;;;9.30;;
286;SDS011;127;48.770;9.212;2023-02-23T03:41:11;18.67;;;8.93;;
286;SDS011;127;48.770;9.212;2023-02-23T03:43:58;19.63;;;9.77;;
286;SDS011;127;48.770;9.212;2023-02-23T03:46:42;19.13;;;8.73;;
286;SDS011;127;48.770;9.212;2023-02-23T03:49:27;17.60;;;8.47;;
286;SDS011;127;48.770;9.212;2023-02-23T03:52:15;17.77;;;8.30;;
286;SDS011;127;48.770;9.212;2023-02-23T03:55:01;17.43;;;9.27;;
286;SDS011;127;48.770;9.212;2023-02-23T03:57:47;31.73;;;10.70;;
286;SDS011;127;48.770;9.212;2023-02-23T04:00:35;16.50;;;7.67;;
286;SDS011;127;48.770;9.212;2023-02-23T04:03:22;16.93;;;9.50;;
286;SDS011;127;48.770;9.212;2023-02-23T04:06:07;17.73;;;8.20;;
286;SDS011;127;48.770;9.212;2023-02-23T04:08:53;17.17;;;8.20;;
286;SDS011;127;48.770;9.212;2023-02-23T04:11:39;23.03;;;8.17;;
286;SDS011;127;48.770;9.212;2023-02-23T04:14:27;17.13;;;9.13;;
286;SDS011;127;48.770;9.212;2023-02-23T04:17:00;17.40;;;9.83;;
286;SDS011;127;48.770;9.212;2023-02-23T04:19:28;15.43;;;8.83;;
286;SDS011;127;48.770;9.212;2023-02-23T04:21:57;18.83;;;9.30;;
286;SDS011;127;48.770;9.212;2023-02-23T04:24:25;25.03;;;9.27;;
286;SDS011;127;48.770;9.212;2023-02-23T04:26:54;22.33;;;10.00;;
286;SDS011;127;48.770;9.212;2023-02-23T04:29:22;16.47;;;8.10;;
286;SDS011;127;48.770;9.212;2023-02-23T04:31:51;17.60;;;8.00;;
286;SDS011;127;48.770;9.212;2023-02-23T04:34:22;15.40;;;8.03;;
286;SDS011;127;48.770;9.212;2023-02-23T04:36:51;14.80;;;8.10;;
286;SDS011;127;48.770;9.212;2023-02-23T04:39:19;21.83;;;9.10;;
286;SDS011;127;48.770;9.212;2023-02-23T04:41:48;20.30;;;9.27;;
286;SDS011;127;48.770;9.212;2023-02-23T04:44:16;15.80;;;8.53;;
286;SDS011;127;48.770;9.212;2023-02-23T04:46:45;19.23;;;8.40;;
286;SDS011;127;48.770;9.212;2023-02-23T04:49:14;23.20;;;8.50;;
286;SDS011;127;48.770;9.212;2023-02-23T04:51:45;23.27;;;10.03;;
286;SDS011;127;48.770;9.212;2023-02-23T04:54:14;12.70;;;7.37;;
286;SDS011;127;48.770;9.212;2023-02-23T04:56:42;13.97;;;8.40;;
286;SDS011;127;48.770;9.212;2023-02-23T04:59:11;14.40;;;7.23;;
286;SDS011;127;48.770;9.212;2023-02-23T05:01:39;20.60;;;9.30;;
286;SDS011;127;48.770;9.212;2023-02-23T05:04:08;17.50;;;9.20;;
286;SDS011;127;48.770;9.212;2023-02-23T05:06:37;19.97;;;9.70;;
286;SDS011;127;48.770;9.212;2023-02-23T05:09:09;19.47;;;9.93;;
286;SDS011;127;48.770;9.212;2023-02-23T05:11:38;20.87;;;10.07;;
286;SDS011;127;48.770;9.212;2023-02-23T05:14:06;24.67;;;11.50;;
286;SDS011;127;48.770;9.212;2023-02-23T05:16:36;16.70;;;8.70;;
286;SDS011;127;48.770;9.212;2023-02-23T05:19:05;23.27;;;10.57;;
286;SDS011;127;48.770;9.212;2023-02-23T05:21:33;18.43;;;8.43;;
286;SDS011;127;48.770;9.212;2023-02-23T05:24:02;19.00;;;9.13;;
286;SDS011;127;48.770;9.212;2023-02-23T05:26:34;17.70;;;10.03;;
286;SDS011;127;48.770;9.212;2023-02-23T05:29:03;20.37;;;9.77;;
286;SDS011;127;48.770;9.212;2023-02-23T05:31:32;18.07;;;9.87;;
286;SDS011;127;48.770;9.212;2023-02-23T05:34:00;17.13;;;9.77;;
286;SDS011;127;48.770;9.212;2023-02-23T05:36:29;24.37;;;10.43;;
286;SDS011;127;48.770;9.212;2023-02-23T05:38:57;22.77;;;10.60;;
286;SDS011;127;48.770;9.212;2023-02-23T05:41:26;20.80;;;10.40;;
286;SDS011;127;48.770;9.212;2023-02-23T05:43:57;22.33;;;9.60;;
286;SDS011;127;48.770;9.212;2023-02-23T05:46:26;24.03;;;10.77;;
286;SDS011;127;48.770;9.212;2023-02-23T05:48:55;28.07;;;10.70;;
286;SDS011;127;48.770;9.212;2023-02-23T05:51:25;24.43;;;10.27;;
286;SDS011;127;48.770;9.212;2023-02-23T05:53:54;25.60;;;10.70;;
286;SDS011;127;48.770;9.212;2023-02-23T05:56:23;19.03;;;9.50;;
286;SDS011;127;48.770;9.212;2023-02-23T05:58:53;20.40;;;9.73;;
286;SDS011;127;48.770;9.212;2023-02-23T06:01:25;20.60;;;10.27;;
286;SDS011;127;48.770;9.212;2023-02-23T06:03:54;18.73;;;9.73;;
286;SDS011;127;48.770;9.212;2023-02-23T06:06:23;15.67;;;8.47;;
286;SDS011;127;48.770;9.212;2023-02-23T06:08:52;14.50;;;10.20;;
286;SDS011;127;48.770;9.212;2023-02-23T06:11:21;21.07;;;10.90;;
286;SDS011;127;48.770;9.212;2023-02-23T06:13:50;18.93;;;9.47;;
286;SDS011;127;48.770;9.212;2023-02-23T06:16:19;21.87;;;11.27;;
286;SDS011;127;48.770;9.212;2023-02-23T06:18:50;19.93;;;9.53;;
286;SDS011;127;48.770;9.212;2023-02-23T06:21:19;20.13;;;10.43;;
286;SDS011;127;48.770;9.212;2023-02-23T06:23:49;18.93;;;9.80;;
286;SDS011;127;48.770;9.212;2023-02-23T06:26:17;32.23;;;10.40;;
286;SDS011;127;48.770;9.212;2023-02-23T06:28:47;23.93;;;10.30;;
286;SDS011;127;48.770;9.212;2023-02-23T06:31:15;25.73;;;11.30;;
286;SDS011;127;48.770;9.212;2023-02-23T06:33:44;24.87;;;11.83;;
286;SDS011;127;48.770;9.212;2023-02-23T06:36:15;18.17;;;11.20;;
286;SDS011;127;48.770;9.212;2023-02-23T06:38:44;18.07;;;10.13;;
286;SDS011;127;48.770;9.212;2023-02-23T06:41:13;22.00;;;10.63;;
286;SDS011;127;48.770;9.212;2023-02-23T06:43:41;16.87;;;9.87;;
286;SDS011;127;48.770;9.212;2023-02-23T06:46:10;16.90;;;9.40;;
286;SDS011;127;48.770;9.212;2023-02-23T06:48:39;23.53;;;11.17;;
286;SDS011;127;48.770;9.212;2023-02-23T06:51:08;23.20;;;10.30;;
286;SDS011;127;48.770;9.212;2023-02-23T06:53:39;24.97;;;11.10;;
286;SDS011;127;48.770;9.212;2023-02-23T06:56:07;22.03;;;10.20;;
286;SDS011;127;48.770;9.212;2023-02-23T06:58:36;27.13;;;10.37;;
286;SDS011;127;48.770;9.212;2023-02-23T07:01:05;27.80;;;12.27;;
286;SDS011;127;48.770;9.212;2023-02-23T07:03:34;23.30;;;11.48;;
286;SDS011;127;48.770;9.212;2023-02-23T07:06:02;24.80;;;12.40;;
286;SDS011;127;48.770;9.212;2023-02-23T07:08:31;21.60;;;11.70;;
286;SDS011;127;48.770;9.212;2023-02-23T07:11:06;26.30;;;11.77;;
286;SDS011;127;48.770;9.212;2023-02-23T07:13:37;23.20;;;11.10;;
286;SDS011;127;48.770;9.212;2023-02-23T07:16:06;22.30;;;10.93;;
286;SDS011;127;48.770;9.212;2023-02-23T07:18:38;23.27;;;11.27;;
286;SDS011;127;48.770;9.212;2023-02-23T07:21:07;19.53;;;10.63;;
286;SDS011;127;48.770;9.212;2023-02-23T07:23:35;19.53;;;9.67;;
286;SDS011;127;48.770;9.212;2023-02-23T07:26:06;20.40;;;10.70;;
286;SDS011;127;48.770;9.212;2023-02-23T07:28:39;19.42;;;10.77;;
286;SDS011;127;48.770;9.212;2023-02-23T07:31:08;26.77;;;12.13;;
286;SDS011;127;48.770;9.212;2023-02-23T07:33:36;19.70;;;10.90;;
286;SDS011;127;48.770;9.212;2023-02-23T07:36:05;22.10;;;11.23;;
286;SDS011;127;48.770;9.212;2023-02-23T07:38:34;19.63;;;9.67;;
286;SDS011;127;48.770;9.212;2023-02-23T07:41:03;30.27;;;11.80;;
286;SDS011;127;48.770;9.212;2023-02-23T07:43:35;23.33;;;9.43;;
286;SDS011;127;48.770;9.212;2023-02-23T07:46:03;18.07;;;10.30;;
286;SDS011;127;48.770;9.212;2023-02-23T07:48:32;17.77;;;8.53;;
286;SDS011;127;48.770;9.212;2023-02-23T07:51:06;20.30;;;9.40;;
286;SDS011;127;48.770;9.212;2023-02-23T07:53:36;23.40;;;12.77;;
286;SDS011;127;48.770;9.212;2023-02-23T07:56:08;26.20;;;13.70;;
286;SDS011;127;48.770;9.212;2023-02-23T07:58:38;24.00;;;12.10;;
286;SDS011;127;48.770;9.212;2023-02-23T08:01:08;17.57;;;10.27;;
286;SDS011;127;48.770;9.212;2023-02-23T08:03:38;22.00;;;10.43;;
286;SDS011;127;48.770;9.212;2023-02-23T08:06:13;22.90;;;10.90;;
286;SDS011;127;48.770;9.212;2023-02-23T08:08:42;23.60;;;11.50;;
286;SDS011;127;48.770;9.212;2023-02-23T08:11:13;22.00;;;12.07;;
286;SDS011;127;48.770;9.212;2023-02-23T08:13:42;15.77;;;8.50;;
286;SDS011;127;48.770;9.212;2023-02-23T08:16:10;17.20;;;8.70;;
286;SDS011;127;48.770;9.212;2023-02-23T08:18:40;18.30;;;9.73;;
286;SDS011;127;48.770;9.212;2023-02-23T08:21:10;15.20;;;8.30;;
286;SDS011;127;48.770;9.212;2023-02-23T08:23:38;14.80;;;9.43;;
286;SDS011;127;48.770;9.212;2023-02-23T08:26:07;19.13;;;8.70;;
286;SDS011;127;48.770;9.212;2023-02-23T08:28:38;16.30;;;10.30;;
286;SDS011;127;48.770;9.212;2023-02-23T08:31:10;18.17;;;9.50;;
286;SDS011;127;48.770;9.212;2023-02-23T08:33:40;19.53;;;8.73;;
286;SDS011;127;48.770;9.212;2023-02-23T08:36:09;15.63;;;8.57;;
286;SDS011;127;48.770;9.212;2023-02-23T08:38:37;15.17;;;7.73;;
286;SDS011;127;48.770;9.212;2023-02-23T08:41:06;16.00;;;8.20;;
286;SDS011;127;48.770;9.212;2023-02-23T08:43:35;18.13;;;8.83;;
286;SDS011;127;48.770;9.212;2023-02-23T08:46:06;18.20;;;9.77;;
286;SDS011;127;48.770;9.212;2023-02-23T08:48:34;13.70;;;8.50;;
286;SDS011;127;48.770;9.212;2023-02-23T08:51:04;15.73;;;8.70;;
286;SDS011;127;48.770;9.212;2023-02-23T08:53:33;16.33;;;9.43;;
286;SDS011;127;48.770;9.212;2023-02-23T08:56:04;17.23;;;8.87;;
286;SDS011;127;48.770;9.212;2023-02-23T08:58:34;17.53;;;7.97;;
286;SDS011;127;48.770;9.212;2023-02-23T09:01:06;17.70;;;9.00;;
286;SDS011;127;48.770;9.212;2023-02-23T09:03:35;19.40;;;9.10;;
286;SDS011;127;48.770;9.212;2023-02-23T09:06:05;17.40;;;9.17;;
286;SDS011;127;48.770;9.212;2023-02-23T09:08:36;15.00;;;8.93;;
286;SDS011;127;48.770;9.212;2023-02-23T09:11:04;17.30;;;7.80;;
286;SDS011;127;48.770;9.212;2023-02-23T09:13:38;16.57;;;8.17;;
286;SDS011;127;48.770;9.212;2023-02-23T09:16:08;16.67;;;7.20;;
286;SDS011;127;48.770;9.212;2023-02-23T09:18:36;17.80;;;9.07;;
286;SDS011;127;48.770;9.212;2023-02-23T09:21:06;20.83;;;7.00;;
286;SDS011;127;48.770;9.212;2023-02-23T09:23:43;17.93;;;6.73;;
286;SDS011;127;48.770;9.212;2023-02-23T09:26:14;19.40;;;7.20;;
286;SDS011;127;48.770;9.212;2023-02-23T09:28:45;26.67;;;8.40;;
286;SDS011;127;48.770;9.212;2023-02-23T09:31:15;16.60;;;7.07;;
286;SDS011;127;48.770;9.212;2023-02-23T09:33:45;21.93;;;8.70;;
286;SDS011;127;48.770;9.212;2023-02-23T09:36:14;12.20;;;7.00;;
286;SDS011;127;48.770;9.212;2023-02-23T09:38:45;19.53;;;6.83;;
286;SDS011;127;48.770;9.212;2023-02-23T09:41:41;13.00;;;7.23;;
286;SDS011;127;48.770;9.212;2023-02-23T09:44:25;22.53;;;6.77;;
286;SDS011;127;48.770;9.212;2023-02-23T09:47:07;21.83;;;6.67;;
286;SDS011;127;48.770;9.212;2023-02-23T09:49:46;12.83;;;7.60;;
286;SDS011;127;48.770;9.212;2023-02-23T09:52:19;11.07;;;7.40;;
286;SDS011;127;48.770;9.212;2023-02-23T09:54:52;10.77;;;6.37;;
286;SDS011;127;48.770;9.212;2023-02-23T09:57:22;17.27;;;6.97;;
286;SDS011;127;48.770;9.212;2023-02-23T09:59:58;13.80;;;6.60;;
286;SDS011;127;48.770;9.212;2023-02-23T10:02:27;10.87;;;6.17;;
286;SDS011;127;48.770;9.212;2023-02-23T10:05:05;16.80;;;6.00;;
286;SDS011;127;48.770;9.212;2023-02-23T10:07:43;14.83;;;6.83;;
286;SDS011;127;48.770;9.212;2023-02-23T10:10:19;14.23;;;7.83;;
286;SDS011;127;48.770;9.212;2023-02-23T10:12:56;19.37;;;10.27;;
286;SDS011;127;48.770;9.212;2023-02-23T10:15:37;24.80;;;11.80;;
286;SDS011;127;48.770;9.212;2023-02-23T10:18:13;19.63;;;10.00;;
286;SDS011;127;48.770;9.212;2023-02-23T10:20:53;17.30;;;9.67;;
286;SDS011;127;48.770;9.212;2023-02-23T10:23:29;15.10;;;8.60;;
286;SDS011;127;48.770;9.212;2023-02-23T10:26:01;18.80;;;8.67;;
286;SDS011;127;48.770;9.212;2023-02-23T10:28:33;20.07;;;10.33;;
286;SDS011;127;48.770;9.212;2023-02-23T10:31:06;22.40;;;10.33;;
286;SDS011;127;48.770;9.212;2023-02-23T10:33:48;25.47;;;10.20;;
286;SDS011;127;48.770;9.212;2023-02-23T10:36:24;23.93;;;11.40;;
286;SDS011;127;48.770;9.212;2023-02-23T10:39:04;17.10;;;6.50;;
286;SDS011;127;48.770;9.212;2023-02-23T10:41:34;13.70;;;7.60;;
286;SDS011;127;48.770;9.212;2023-02-23T10:44:06;18.17;;;6.27;;
286;SDS011;127;48.770;9.212;2023-02-23T10:46:45;19.23;;;7.50;;
286;SDS011;127;48.770;9.212;2023-02-23T10:49:18;17.77;;;7.40;;
286;SDS011;127;48.770;9.212;2023-02-23T10:51:49;16.70;;;6.70;;
286;SDS011;127;48.770;9.212;2023-02-23T10:54:39;10.67;;;5.50;;
286;SDS011;127;48.770;9.212;2023-02-23T10:57:12;11.20;;;5.37;;
286;SDS011;127;48.770;9.212;2023-02-23T11:02:53;16.93;;;6.40;;
286;SDS011;127;48.770;9.212;2023-02-23T11:05:26;15.67;;;9.17;;
286;SDS011;127;48.770;9.212;2023-02-23T11:08:12;20.57;;;11.33;;
286;SDS011;127;48.770;9.212;2023-02-23T11:10:55;20.83;;;11.07;;
286;SDS011;127;48.770;9.212;2023-02-23T11:13:33;35.03;;;13.00;;
286;SDS011;127;48.770;9.212;2023-02-23T11:16:07;26.27;;;11.73;;
286;SDS011;127;48.770;9.212;2023-02-23T11:18:43;30.80;;;11.20;;
286;SDS011;127;48.770;9.212;2023-02-23T11:21:20;26.27;;;10.87;;
286;SDS011;127;48.770;9.212;2023-02-23T11:23:54;15.33;;;8.40;;
286;SDS011;127;48.770;9.212;2023-02-23T11:26:29;21.40;;;10.83;;
286;SDS011;127;48.770;9.212;2023-02-23T11:29:03;19.10;;;10.50;;
286;SDS011;127;48.770;9.212;2023-02-23T11:31:44;15.63;;;9.37;;
286;SDS011;127;48.770;9.212;2023-02-23T11:34:22;21.70;;;11.17;;
286;SDS011;127;48.770;9.212;2023-02-23T11:36:59;22.67;;;9.30;;
286;SDS011;127;48.770;9.212;2023-02-23T11:39:31;15.57;;;8.90;;
286;SDS011;127;48.770;9.212;2023-02-23T11:42:03;19.30;;;9.80;;
286;SDS011;127;48.770;9.212;2023-02-23T11:44:49;17.27;;;8.77;;
286;SDS011;127;48.770;9.212;2023-02-23T11:47:20;16.23;;;9.70;;
286;SDS011;127;48.770;9.212;2023-02-23T11:49:53;26.03;;;10.63;;
286;SDS011;127;48.770;9.212;2023-02-23T11:52:23;18.67;;;9.33;;
286;SDS011;127;48.770;9.212;2023-02-23T11:54:54;21.80;;;10.00;;
286;SDS011;127;48.770;9.212;2023-02-23T11:57:27;21.67;;;9.40;;
286;SDS011;127;48.770;9.212;2023-02-23T11:59:59;23.10;;;9.80;;
286;SDS011;127;48.770;9.212;2023-02-23T12:02:40;16.67;;;9.03;;
286;SDS011;127;48.770;9.212;2023-02-23T12:05:20;22.23;;;9.87;;
286;SDS011;127;48.770;9.212;2023-02-23T12:07:52;18.47;;;8.73;;
286;SDS011;127;48.770;9.212;2023-02-23T12:10:25;26.47;;;7.70;;
286;SDS011;127;48.770;9.212;2023-02-23T12:13:01;18.80;;;7.97;;
286;SDS011;127;48.770;9.212;2023-02-23T12:15:39;17.80;;;7.37;;
286;SDS011;127;48.770;9.212;2023-02-23T12:18:16;14.60;;;7.57;;
286;SDS011;127;48.770;9.212;2023-02-23T12:20:59;12.97;;;7.70;;
286;SDS011;127;48.770;9.212;2023-02-23T12:23:33;16.23;;;7.37;;
286;SDS011;127;48.770;9.212;2023-02-23T12:26:08;19.43;;;8.40;;
286;SDS011;127;48.770;9.212;2023-02-23T12:28:42;23.83;;;8.60;;
286;SDS011;127;48.770;9.212;2023-02-23T12:31:20;21.60;;;8.30;;
286;SDS011;127;48.770;9.212;2023-02-23T12:33:54;12.53;;;7.17;;
286;SDS011;127;48.770;9.212;2023-02-23T12:36:29;24.30;;;7.90;;
286;SDS011;127;48.770;9.212;2023-02-23T12:39:04;19.50;;;7.37;;
286;SDS011;127;48.770;9.212;2023-02-23T12:41:42;13.93;;;7.37;;
286;SDS011;127;48.770;9.212;2023-02-23T12:44:19;15.10;;;7.60;;
286;SDS011;127;48.770;9.212;2023-02-23T12:46:58;19.90;;;6.50;;
286;SDS011;127;48.770;9.212;2023-02-23T12:49:34;26.43;;;6.90;;
286;SDS011;127;48.770;9.212;2023-02-23T12:52:09;16.67;;;7.00;;
286;SDS011;127;48.770;9.212;2023-02-23T12:54:40;26.37;;;6.37;;
286;SDS011;127;48.770;9.212;2023-02-23T12:57:13;14.97;;;6.67;;
286;SDS011;127;48.770;9.212;2023-02-23T12:59:55;14.10;;;6.20;;
286;SDS011;127;48.770;9.212;2023-02-23T13:02:49;14.63;;;6.47;;
286;SDS011;127;48.770;9.212;2023-02-23T13:05:26;12.17;;;5.33;;
286;SDS011;127;48.770;9.212;2023-02-23T13:08:04;10.70;;;5.30;;
286;SDS011;127;48.770;9.212;2023-02-23T13:10:45;17.23;;;5.53;;
286;SDS011;127;48.770;9.212;2023-02-23T13:13:24;13.33;;;5.47;;
286;SDS011;127;48.770;9.212;2023-02-23T13:15:59;16.43;;;4.90;;
286;SDS011;127;48.770;9.212;2023-02-23T13:18:36;11.87;;;5.10;;
286;SDS011;127;48.770;9.212;2023-02-23T13:21:11;11.47;;;5.43;;
286;SDS011;127;48.770;9.212;2023-02-23T13:23:52;13.93;;;5.13;;
286;SDS011;127;48.770;9.212;2023-02-23T13:26:27;17.27;;;5.43;;
286;SDS011;127;48.770;9.212;2023-02-23T13:29:01;8.50;;;5.10;;
286;SDS011;127;48.770;9.212;2023-02-23T13:31:34;17.60;;;5.90;;
286;SDS011;127;48.770;9.212;2023-02-23T13:34:05;9.70;;;5.03;;
286;SDS011;127;48.770;9.212;2023-02-23T13:36:38;14.10;;;5.50;;
286;SDS011;127;48.770;9.212;2023-02-23T13:39:18;16.30;;;6.90;;
286;SDS011;127;48.770;9.212;2023-02-23T13:42:12;14.80;;;5.90;;
286;SDS011;127;48.770;9.212;2023-02-23T13:44:47;12.97;;;6.03;;
286;SDS011;127;48.770;9.212;2023-02-23T13:47:29;13.93;;;7.30;;
286;SDS011;127;48.770;9.212;2023-02-23T13:50:04;12.60;;;5.93;;
286;SDS011;127;48.770;9.212;2023-02-23T13:52:42;19.80;;;7.23;;
286;SDS011;127;48.770;9.212;2023-02-23T13:58:05;21.70;;;8.70;;
286;SDS011;127;48.770;9.212;2023-02-23T14:00:40;20.77;;;9.07;;
286;SDS011;127;48.770;9.212;2023-02-23T14:03:19;14.23;;;8.10;;
286;SDS011;127;48.770;9.212;2023-02-23T14:05:51;13.60;;;8.03;;
286;SDS011;127;48.770;9.212;2023-02-23T14:08:26;14.57;;;8.73;;
286;SDS011;127;48.770;9.212;2023-02-23T14:11:02;24.80;;;8.13;;
286;SDS011;127;48.770;9.212;2023-02-23T14:13:32;22.87;;;9.03;;
286;SDS011;127;48.770;9.212;2023-02-23T14:16:08;20.23;;;9.13;;
286;SDS011;127;48.770;9.212;2023-02-23T14:18:49;56.53;;;9.60;;
286;SDS011;127;48.770;9.212;2023-02-23T14:21:25;27.67;;;9.20;;
286;SDS011;127;48.770;9.212;2023-02-23T14:24:01;18.63;;;8.00;;
286;SDS011;127;48.770;9.212;2023-02-23T14:26:42;19.00;;;9.10;;
286;SDS011;127;48.770;9.212;2023-02-23T14:34:56;16.17;;;7.10;;
286;SDS011;127;48.770;9.212;2023-02-23T14:37:27;15.93;;;6.50;;
286;SDS011;127;48.770;9.212;2023-02-23T14:40:10;13.33;;;6.30;;
286;SDS011;127;48.770;9.212;2023-02-23T14:42:44;16.33;;;7.10;;
286;SDS011;127;48.770;9.212;2023-02-23T14:45:17;12.93;;;7.30;;
286;SDS011;127;48.770;9.212;2023-02-23T14:47:51;16.10;;;7.07;;
286;SDS011;127;48.770;9.212;2023-02-23T14:50:24;12.57;;;6.10;;
286;SDS011;127;48.770;9.212;2023-02-23T14:52:54;20.17;;;6.37;;
286;SDS011;127;48.770;9.212;2023-02-23T14:55:25;24.10;;;8.30;;
286;SDS011;127;48.770;9.212;2023-02-23T14:58:00;12.10;;;6.27;;
286;SDS011;127;48.770;9.212;2023-02-23T15:00:30;12.80;;;5.80;;
286;SDS011;127;48.770;9.212;2023-02-23T15:03:03;20.90;;;6.73;;
286;SDS011;127;48.770;9.212;2023-02-23T15:05:34;12.27;;;4.50;;
286;SDS011;127;48.770;9.212;2023-02-23T15:08:11;15.03;;;5.00;;
286;SDS011;127;48.770;9.212;2023-02-23T15:10:43;11.83;;;3.97;;
286;SDS011;127;48.770;9.212;2023-02-23T15:13:19;9.20;;;4.80;;
286;SDS011;127;48.770;9.212;2023-02-23T15:15:54;12.37;;;4.80;;
286;SDS011;127;48.770;9.212;2023-02-23T15:18:26;11.50;;;5.50;;
286;SDS011;127;48.770;9.212;2023-02-23T15:20:58;12.23;;;4.73;;
286;SDS011;127;48.770;9.212;2023-02-23T15:23:27;11.50;;;4.27;;
286;SDS011;127;48.770;9.212;2023-02-23T15:26:14;18.10;;;5.30;;
286;SDS011;127;48.770;9.212;2023-02-23T15:28:45;8.80;;;4.53;;
286;SDS011;127;48.770;9.212;2023-02-23T15:31:14;10.57;;;4.57;;
286;SDS011;127;48.770;9.212;2023-02-23T15:33:43;10.73;;;5.10;;
286;SDS011;127;48.770;9.212;2023-02-23T15:36:15;12.03;;;5.27;;
286;SDS011;127;48.770;9.212;2023-02-23T15:38:51;17.80;;;5.37;;
286;SDS011;127;48.770;9.212;2023-02-23T15:41:25;16.53;;;5.83;;
286;SDS011;127;48.770;9.212;2023-02-23T15:44:02;15.17;;;5.43;;
286;SDS011;127;48.770;9.212;2023-02-23T15:46:35;16.00;;;5.87;;
286;SDS011;127;48.770;9.212;2023-02-23T15:49:06;20.70;;;6.47;;
286;SDS011;127;48.770;9.212;2023-02-23T15:51:38;20.67;;;5.43;;
286;SDS011;127;48.770;9.212;2023-02-23T15:54:14;13.03;;;6.23;;
286;SDS011;127;48.770;9.212;2023-02-23T15:56:48;12.90;;;5.80;;
286;SDS011;127;48.770;9.212;2023-02-23T15:59:24;12.70;;;5.67;;
286;SDS011;127;48.770;9.212;2023-02-23T16:01:56;13.30;;;6.50;;
286;SDS011;127;48.770;9.212;2023-02-23T16:04:27;18.20;;;6.53;;
286;SDS011;127;48.770;9.212;2023-02-23T16:07:08;9.50;;;6.00;;
286;SDS011;127;48.770;9.212;2023-02-23T16:09:48;14.77;;;6.50;;
286;SDS011;127;48.770;9.212;2023-02-23T16:12:19;15.33;;;7.63;;
286;SDS011;127;48.770;9.212;2023-02-23T16:14:53;17.63;;;7.10;;
286;SDS011;127;48.770;9.212;2023-02-23T16:17:24;14.20;;;7.03;;
286;SDS011;127;48.770;9.212;2023-02-23T16:19:56;14.13;;;7.53;;
286;SDS011;127;48.770;9.212;2023-02-23T16:22:35;18.30;;;9.23;;
286;SDS011;127;48.770;9.212;2023-02-23T16:25:07;16.90;;;7.90;;
286;SDS011;127;48.770;9.212;2023-02-23T16:27:40;17.10;;;8.40;;